createdAt,value
2022-08-11T00:01:18.531Z,3.40
2022-08-11T00:03:49.242Z,3.90
2022-08-11T00:06:24.503Z,3.83
2022-08-11T00:08:52.003Z,3.20
2022-08-11T00:11:20.137Z,3.60
2022-08-11T00:13:49.542Z,3.53
2022-08-11T00:16:21.710Z,3.73
2022-08-11T00:18:53.709Z,3.50
2022-08-11T00:21:54.603Z,3.47
2022-08-11T00:24:09.706Z,3.20
2022-08-11T00:26:37.622Z,3.20
2022-08-11T00:29:10.303Z,3.27
2022-08-11T00:31:38.055Z,3.20
2022-08-11T00:34:11.085Z,3.47
2022-08-11T00:36:44.717Z,3.30
2022-08-11T00:39:12.379Z,3.47
2022-08-11T00:41:46.024Z,3.60
2022-08-11T00:44:43.788Z,3.20
2022-08-11T00:47:20.423Z,3.57
2022-08-11T00:49:53.548Z,3.10
2022-08-11T00:52:40.671Z,3.07
2022-08-11T00:55:31.151Z,3.27
2022-08-11T00:58:21.816Z,3.60
2022-08-11T01:01:08.463Z,3.30
2022-08-11T01:03:55.730Z,3.13
2022-08-11T01:06:51.227Z,2.80
2022-08-11T01:10:06.955Z,3.17
2022-08-11T01:12:40.128Z,2.97
2022-08-11T01:15:57.619Z,3.50
2022-08-11T01:18:54.258Z,3.60
2022-08-11T01:21:57.633Z,3.40
2022-08-11T01:24:46.199Z,3.57
2022-08-11T01:27:55.336Z,3.30
2022-08-11T01:30:54.322Z,3.50
2022-08-11T01:33:40.399Z,3.40
2022-08-11T01:36:44.601Z,3.40
2022-08-11T01:39:29.644Z,3.47
2022-08-11T01:42:30.021Z,3.17
2022-08-11T01:45:07.400Z,3.07
2022-08-11T01:47:53.225Z,3.03
2022-08-11T01:50:48.674Z,3.10
2022-08-11T01:53:37.215Z,3.23
2022-08-11T01:56:30.350Z,3.20
2022-08-11T01:59:35.592Z,3.53
2022-08-11T02:02:09.711Z,2.93
2022-08-11T02:04:49.585Z,2.97
2022-08-11T02:07:26.297Z,3.40
2022-08-11T02:10:35.214Z,2.70
2022-08-11T02:13:37.624Z,3.13
2022-08-11T02:16:13.681Z,3.10
2022-08-11T02:19:06.041Z,3.13
2022-08-11T02:22:05.002Z,2.97
2022-08-11T02:24:45.545Z,3.23
2022-08-11T02:27:21.787Z,3.40
2022-08-11T02:30:08.509Z,3.23
2022-08-11T02:33:23.332Z,2.80
2022-08-11T02:36:01.691Z,3.20
2022-08-11T02:38:54.289Z,3.60
2022-08-11T02:41:42.733Z,3.20
2022-08-11T02:44:36.314Z,2.87
2022-08-11T02:47:18.305Z,3.50
2022-08-11T02:49:59.965Z,3.73
2022-08-11T02:52:59.748Z,3.70
2022-08-11T02:55:57.239Z,3.27
2022-08-11T02:59:18.744Z,3.40
2022-08-11T03:01:50.454Z,3.43
2022-08-11T03:04:37.318Z,3.40
2022-08-11T03:07:29.716Z,3.50
2022-08-11T03:10:14.617Z,3.10
2022-08-11T03:13:08.303Z,3.67
2022-08-11T03:16:05.166Z,3.20
2022-08-11T03:18:48.231Z,3.10
2022-08-11T03:21:21.692Z,2.97
2022-08-11T03:23:58.476Z,3.20
2022-08-11T03:26:32.007Z,3.00
2022-08-11T03:29:31.222Z,2.73
2022-08-11T03:32:07.705Z,2.90
2022-08-11T03:34:39.087Z,3.20
2022-08-11T03:37:46.706Z,2.90
2022-08-11T03:40:37.929Z,2.97
2022-08-11T03:43:35.159Z,3.13
2022-08-11T03:46:13.264Z,2.80
2022-08-11T03:48:54.481Z,2.97
2022-08-11T03:51:44.931Z,2.90
2022-08-11T03:54:25.321Z,3.13
2022-08-11T03:57:26.198Z,3.27
2022-08-11T04:00:15.291Z,3.33
2022-08-11T04:03:39.156Z,2.80
2022-08-11T04:06:20.713Z,3.00
2022-08-11T04:09:26.562Z,2.90
2022-08-11T04:12:08.722Z,2.70
2022-08-11T04:15:09.704Z,2.80
2022-08-11T04:18:19.132Z,3.03
2022-08-11T04:20:58.682Z,3.10
2022-08-11T04:24:34.893Z,3.13
2022-08-11T04:26:34.920Z,2.93
2022-08-11T04:29:32.314Z,2.83
2022-08-11T04:32:24.356Z,3.13
2022-08-11T04:35:08.646Z,3.03
2022-08-11T04:37:43.940Z,3.50
2022-08-11T04:40:43.055Z,3.20
2022-08-11T04:44:05.466Z,3.23
2022-08-11T04:48:01.742Z,3.17
2022-08-11T04:51:16.852Z,2.80
2022-08-11T04:54:15.736Z,3.00
2022-08-11T04:57:03.733Z,2.90
2022-08-11T05:00:17.809Z,2.87
2022-08-11T05:03:15.599Z,2.97
2022-08-11T05:05:56.843Z,2.80
2022-08-11T05:08:55.814Z,3.10
2022-08-11T05:12:09.531Z,2.90
2022-08-11T05:15:04.080Z,3.17
2022-08-11T05:18:41.917Z,2.83
2022-08-11T05:21:30.497Z,3.07
2022-08-11T05:24:38.508Z,3.03
2022-08-11T05:27:26.730Z,3.03
2022-08-11T05:30:34.366Z,3.00
2022-08-11T05:33:38.418Z,2.80
2022-08-11T05:36:20.867Z,3.43
2022-08-11T05:39:20.299Z,3.10
2022-08-11T05:42:30.243Z,2.90
2022-08-11T05:46:03.999Z,2.67
2022-08-11T05:48:54.982Z,2.90
2022-08-11T05:51:55.122Z,2.73
2022-08-11T05:54:42.625Z,2.90
2022-08-11T05:57:42.342Z,2.57
2022-08-11T06:00:12.655Z,2.93
2022-08-11T06:02:42.337Z,2.67
2022-08-11T06:05:09.729Z,2.90
2022-08-11T06:07:48.964Z,2.80
2022-08-11T06:10:33.387Z,2.85
2022-08-11T06:13:03.048Z,2.80
2022-08-11T06:15:34.711Z,2.80
2022-08-11T06:18:02.977Z,2.70
2022-08-11T06:20:37.522Z,2.90
2022-08-11T06:23:07.367Z,2.90
2022-08-11T06:25:35.936Z,2.58
2022-08-11T06:28:04.767Z,2.40
2022-08-11T06:30:40.659Z,2.67
2022-08-11T06:33:44.002Z,2.28
2022-08-11T06:36:16.334Z,2.63
2022-08-11T06:38:53.703Z,2.60
2022-08-11T06:41:32.777Z,2.42
2022-08-11T06:44:29.727Z,2.50
2022-08-11T06:47:06.031Z,2.40
2022-08-11T06:49:56.160Z,2.25
2022-08-11T06:52:41.234Z,2.60
2022-08-11T06:55:12.602Z,2.50
2022-08-11T06:58:13.796Z,2.22
2022-08-11T07:00:42.541Z,2.15
2022-08-11T07:03:13.781Z,2.38
2022-08-11T07:05:56.095Z,2.28
2022-08-11T07:09:00.821Z,1.88
2022-08-11T07:11:49.488Z,2.60
2022-08-11T07:14:40.839Z,2.42
2022-08-11T07:17:18.196Z,2.50
2022-08-11T07:20:10.793Z,2.28
2022-08-11T07:23:10.622Z,2.30
2022-08-11T07:25:59.856Z,2.42
2022-08-11T07:28:47.549Z,2.50
2022-08-11T07:31:25.758Z,2.50
2022-08-11T07:34:07.092Z,2.33
2022-08-11T07:36:40.806Z,2.70
2022-08-11T07:39:13.655Z,2.38
2022-08-11T07:41:41.892Z,2.30
2022-08-11T07:44:09.516Z,2.45
2022-08-11T07:47:01.447Z,2.47
2022-08-11T07:49:52.429Z,2.25
2022-08-11T07:52:30.579Z,2.20
2022-08-11T07:55:03.951Z,2.58
2022-08-11T07:58:15.868Z,2.70
2022-08-11T08:01:22.543Z,2.33
2022-08-11T08:04:10.007Z,2.30
2022-08-11T08:06:56.854Z,2.40
2022-08-11T08:09:43.837Z,2.30
2022-08-11T08:12:31.523Z,2.42
2022-08-11T08:15:17.405Z,2.40
2022-08-11T08:18:09.376Z,2.20
2022-08-11T08:20:51.827Z,2.20
2022-08-11T08:23:33.671Z,2.20
2022-08-11T08:26:04.929Z,1.98
2022-08-11T08:28:33.880Z,2.33
2022-08-11T08:31:01.291Z,2.30
2022-08-11T08:33:30.856Z,2.22
2022-08-11T08:36:17.049Z,2.10
2022-08-11T08:38:54.249Z,2.38
2022-08-11T08:41:28.775Z,2.33
2022-08-11T08:44:34.642Z,2.20
2022-08-11T08:46:54.278Z,2.10
2022-08-11T08:49:32.839Z,1.95
2022-08-11T08:52:25.348Z,2.70
2022-08-11T08:54:56.428Z,2.92
2022-08-11T08:57:24.255Z,2.10
2022-08-11T08:59:51.793Z,1.85
2022-08-11T09:02:34.569Z,2.30
2022-08-11T09:05:04.198Z,2.22
2022-08-11T09:07:39.671Z,1.95
2022-08-11T09:10:09.363Z,2.20
2022-08-11T09:12:38.833Z,2.00
2022-08-11T09:15:10.256Z,2.58
2022-08-11T09:17:42.926Z,2.13
2022-08-11T09:20:24.794Z,2.03
2022-08-11T09:26:21.672Z,2.05
2022-08-11T09:28:50.232Z,2.22
2022-08-11T09:31:17.353Z,2.03
2022-08-11T09:33:46.113Z,2.08
2022-08-11T09:36:33.890Z,1.95
2022-08-11T09:39:21.999Z,2.00
2022-08-11T09:42:01.099Z,2.20
2022-08-11T09:44:48.683Z,2.13
2022-08-11T09:47:29.306Z,2.20
2022-08-11T09:53:38.158Z,1.90
2022-08-11T09:55:56.327Z,2.10
2022-08-11T09:58:42.340Z,1.90
2022-08-11T10:01:27.315Z,2.00
2022-08-11T10:04:09.930Z,1.90
2022-08-11T10:06:56.495Z,1.70
2022-08-11T10:09:25.485Z,2.10
2022-08-11T10:11:58.647Z,1.98
2022-08-11T10:14:46.242Z,2.10
2022-08-11T10:17:15.435Z,1.75
2022-08-11T10:19:44.819Z,2.00
2022-08-11T10:22:51.744Z,1.75
2022-08-11T10:25:37.893Z,1.95
2022-08-11T10:28:17.767Z,2.03
2022-08-11T10:31:16.669Z,2.58
2022-08-11T10:34:00.361Z,2.10
2022-08-11T10:36:29.515Z,2.05
2022-08-11T10:38:57.735Z,2.15
2022-08-11T10:42:03.339Z,2.00
2022-08-11T10:44:38.436Z,2.25
2022-08-11T10:47:25.275Z,2.13
2022-08-11T10:50:12.753Z,2.40
2022-08-11T10:52:59.100Z,2.20
2022-08-11T10:55:46.338Z,2.05
2022-08-11T10:58:33.938Z,2.35
2022-08-11T11:01:01.527Z,2.17
2022-08-11T11:03:30.711Z,2.00
2022-08-11T11:06:28.666Z,1.90
2022-08-11T11:09:04.402Z,2.20
2022-08-11T11:11:55.829Z,2.20
2022-08-11T11:14:49.768Z,2.20
2022-08-11T11:17:26.916Z,1.90
2022-08-11T11:19:58.637Z,2.10
2022-08-11T11:22:38.455Z,1.90
2022-08-11T11:25:16.797Z,2.47
2022-08-11T11:27:57.907Z,2.50
2022-08-11T11:30:32.291Z,2.30
2022-08-11T11:33:57.432Z,2.00
2022-08-11T11:36:41.170Z,1.97
2022-08-11T11:39:09.013Z,2.20
2022-08-11T11:41:36.243Z,2.00
2022-08-11T11:44:05.149Z,1.90
2022-08-11T11:46:38.591Z,2.20
2022-08-11T11:49:13.996Z,2.20
2022-08-11T11:51:50.351Z,2.20
2022-08-11T11:54:18.073Z,2.20
2022-08-11T11:56:45.612Z,2.30
2022-08-11T11:59:31.583Z,2.15
2022-08-11T12:01:59.913Z,2.17
2022-08-11T12:04:27.790Z,2.05
2022-08-11T12:07:15.528Z,3.03
2022-08-11T12:09:42.879Z,1.95
2022-08-11T12:12:29.179Z,2.25
2022-08-11T12:14:56.647Z,2.30
2022-08-11T12:17:24.002Z,2.40
2022-08-11T12:19:53.999Z,2.08
2022-08-11T12:22:43.403Z,2.50
2022-08-11T12:25:29.667Z,3.30
2022-08-11T12:27:57.087Z,2.37
2022-08-11T12:30:24.404Z,2.47
2022-08-11T12:32:52.474Z,2.30
2022-08-11T12:35:19.694Z,2.50
2022-08-11T12:37:50.079Z,2.17
2022-08-11T12:41:03.435Z,2.13
2022-08-11T12:43:57.233Z,2.40
2022-08-11T12:46:37.810Z,2.30
2022-08-11T12:49:30.664Z,2.23
2022-08-11T12:52:10.919Z,2.17
2022-08-11T12:54:52.354Z,2.30
2022-08-11T12:57:47.224Z,2.30
2022-08-11T13:00:34.836Z,2.40
2022-08-11T13:03:21.567Z,2.40
2022-08-11T13:05:53.759Z,2.53
2022-08-11T13:08:22.826Z,2.15
2022-08-11T13:11:09.645Z,2.38
2022-08-11T13:13:54.496Z,2.50
2022-08-11T13:16:27.580Z,2.40
2022-08-11T13:18:55.946Z,2.85
2022-08-11T13:21:23.824Z,2.05
2022-08-11T13:24:01.601Z,2.20
2022-08-11T13:26:43.363Z,2.17
2022-08-11T13:29:20.608Z,2.28
2022-08-11T13:31:47.876Z,2.63
2022-08-11T13:34:20.817Z,2.95
2022-08-11T13:36:54.001Z,2.30
2022-08-11T13:39:27.299Z,2.47
2022-08-11T13:41:56.904Z,2.65
2022-08-11T13:44:27.225Z,2.33
2022-08-11T13:47:04.054Z,2.20
2022-08-11T13:49:32.890Z,2.20
2022-08-11T13:52:00.091Z,2.30
2022-08-11T13:54:31.211Z,2.13
2022-08-11T13:57:02.653Z,2.10
2022-08-11T13:59:31.372Z,2.40
2022-08-11T14:02:21.692Z,2.63
2022-08-11T14:05:09.824Z,2.50
2022-08-11T14:07:40.193Z,2.20
2022-08-11T14:10:08.791Z,2.42
2022-08-11T14:13:09.812Z,2.30
2022-08-11T14:15:37.012Z,2.40
2022-08-11T14:18:07.309Z,2.35
2022-08-11T14:20:55.000Z,2.80
2022-08-11T14:23:33.304Z,2.30
2022-08-11T14:26:21.001Z,2.00
2022-08-11T14:28:49.082Z,2.35
2022-08-11T14:31:16.943Z,2.10
2022-08-11T14:34:00.973Z,2.42
2022-08-11T14:36:32.790Z,2.03
2022-08-11T14:39:02.593Z,2.30
2022-08-11T14:42:11.520Z,2.30
2022-08-11T14:44:57.117Z,2.00
2022-08-11T14:47:25.756Z,2.30
2022-08-11T14:50:11.168Z,2.60
2022-08-11T14:52:56.614Z,2.15
2022-08-11T14:55:44.675Z,2.15
2022-08-11T14:58:14.783Z,2.58
2022-08-11T15:00:43.426Z,5.15
2022-08-11T15:03:13.942Z,4.38
2022-08-11T15:05:56.318Z,2.22
2022-08-11T15:08:50.900Z,2.28
2022-08-11T15:11:38.396Z,2.30
2022-08-11T15:14:08.236Z,2.25
2022-08-11T15:16:58.035Z,2.53
2022-08-11T15:19:26.207Z,1.90
2022-08-11T15:22:12.660Z,2.40
2022-08-11T15:24:40.329Z,2.20
2022-08-11T15:27:31.492Z,2.30
2022-08-11T15:30:33.573Z,2.08
2022-08-11T15:33:28.622Z,2.10
2022-08-11T15:36:16.977Z,2.58
2022-08-11T15:38:59.890Z,2.80
2022-08-11T15:41:59.448Z,2.50
2022-08-11T15:45:03.635Z,2.42
2022-08-11T15:47:42.514Z,2.10
2022-08-11T15:50:23.533Z,2.28
2022-08-11T15:53:02.501Z,2.13
2022-08-11T15:55:35.759Z,2.40
2022-08-11T15:58:28.156Z,2.20
2022-08-11T16:01:16.007Z,2.25
2022-08-11T16:04:13.488Z,2.33
2022-08-11T16:07:07.316Z,2.40
2022-08-11T16:09:51.931Z,2.40
2022-08-11T16:12:32.928Z,2.20
2022-08-11T16:15:30.575Z,2.13
2022-08-11T16:18:05.025Z,2.50
2022-08-11T16:20:48.598Z,2.53
2022-08-11T16:23:25.520Z,2.15
2022-08-11T16:27:06.891Z,2.78
2022-08-11T16:28:44.275Z,2.55
2022-08-11T16:31:12.418Z,2.50
2022-08-11T16:33:51.072Z,2.38
2022-08-11T16:36:39.033Z,2.20
2022-08-11T16:39:07.839Z,2.45
2022-08-11T16:41:55.500Z,2.40
2022-08-11T16:44:41.646Z,2.42
2022-08-11T16:47:14.179Z,2.33
2022-08-11T16:49:52.576Z,2.70
2022-08-11T16:52:23.111Z,2.40
2022-08-11T16:54:50.583Z,2.90
2022-08-11T16:57:46.251Z,2.50
2022-08-11T17:00:16.368Z,2.00
2022-08-11T17:03:04.985Z,2.95
2022-08-11T17:05:55.359Z,2.65
2022-08-11T17:08:56.726Z,2.53
2022-08-11T17:11:48.507Z,2.33
2022-08-11T17:14:35.840Z,2.22
2022-08-11T17:17:13.022Z,2.17
2022-08-11T17:20:41.888Z,2.22
2022-08-11T17:22:53.279Z,2.17
2022-08-11T17:25:20.632Z,2.60
2022-08-11T17:27:48.190Z,2.90
2022-08-11T17:30:16.031Z,2.63
2022-08-11T17:33:10.086Z,2.27
2022-08-11T17:35:40.249Z,2.30
2022-08-11T17:38:14.441Z,2.70
2022-08-11T17:41:05.291Z,2.70
2022-08-11T17:43:51.675Z,2.63
2022-08-11T17:46:38.486Z,2.70
2022-08-11T17:49:07.835Z,3.00
2022-08-11T17:51:54.625Z,2.70
2022-08-11T17:54:41.686Z,2.53
2022-08-11T17:57:28.331Z,2.87
2022-08-11T17:59:59.100Z,2.73
2022-08-11T18:02:53.053Z,3.67
2022-08-11T18:05:22.211Z,2.80
2022-08-11T18:08:10.133Z,3.33
2022-08-11T18:10:56.412Z,2.80
2022-08-11T18:13:43.095Z,3.10
2022-08-11T18:16:29.363Z,2.60
2022-08-11T18:19:15.788Z,3.10
2022-08-11T18:22:14.201Z,3.50
2022-08-11T18:25:11.632Z,3.53
2022-08-11T18:28:02.146Z,3.27
2022-08-11T18:30:51.692Z,2.80
2022-08-11T18:34:06.877Z,2.90
2022-08-11T18:36:59.204Z,3.80
2022-08-11T18:39:54.532Z,3.23
2022-08-11T18:42:43.839Z,3.70
2022-08-11T18:45:39.997Z,3.47
2022-08-11T18:48:37.178Z,3.90
2022-08-11T18:51:30.484Z,3.70
2022-08-11T18:54:28.272Z,3.33
2022-08-11T18:57:17.383Z,3.50
2022-08-11T19:00:04.955Z,3.20
2022-08-11T19:02:52.208Z,3.27
2022-08-11T19:06:32.302Z,3.20
2022-08-11T19:08:49.571Z,3.57
2022-08-11T19:11:42.377Z,3.50
2022-08-11T19:14:34.180Z,4.17
2022-08-11T19:17:43.970Z,3.93
2022-08-11T19:20:31.995Z,3.70
2022-08-11T19:23:18.468Z,3.90
2022-08-11T19:26:05.802Z,4.30
2022-08-11T19:28:53.308Z,3.93
2022-08-11T19:31:44.771Z,3.77
2022-08-11T19:34:38.925Z,3.57
2022-08-11T19:37:26.137Z,3.73
2022-08-11T19:40:19.263Z,3.93
2022-08-11T19:43:14.867Z,4.20
2022-08-11T19:46:15.514Z,3.73
2022-08-11T19:49:03.178Z,3.60
2022-08-11T19:51:54.028Z,4.37
2022-08-11T19:54:45.167Z,4.07
2022-08-11T19:57:35.725Z,4.23
2022-08-11T20:00:36.211Z,4.37
2022-08-11T20:03:26.331Z,4.20
2022-08-11T20:06:14.762Z,4.50
2022-08-11T20:09:02.453Z,4.20
2022-08-11T20:11:56.157Z,4.40
2022-08-11T20:14:43.257Z,4.17
2022-08-11T20:17:32.064Z,4.70
2022-08-11T20:20:22.751Z,4.10
2022-08-11T20:23:12.200Z,4.77
2022-08-11T20:26:08.377Z,4.03
2022-08-11T20:29:04.338Z,4.00
2022-08-11T20:31:50.561Z,4.20
2022-08-11T20:34:37.317Z,4.20
2022-08-11T20:37:24.351Z,4.30
2022-08-11T20:40:11.491Z,4.47
2022-08-11T20:42:57.661Z,4.10
2022-08-11T20:45:55.150Z,4.00
2022-08-11T20:48:44.117Z,4.40
2022-08-11T20:51:33.984Z,4.00
2022-08-11T20:57:59.144Z,4.13
2022-08-11T21:00:47.791Z,4.40
2022-08-11T21:03:36.309Z,4.40
2022-08-11T21:06:33.006Z,3.97
2022-08-11T21:09:23.888Z,3.90
2022-08-11T21:12:29.957Z,3.63
2022-08-11T21:15:38.902Z,3.80
2022-08-11T21:18:27.502Z,4.17
2022-08-11T21:21:16.842Z,4.07
2022-08-11T21:24:03.124Z,3.87
2022-08-11T21:26:50.551Z,4.00
2022-08-11T21:29:36.693Z,4.00
2022-08-11T21:32:22.824Z,4.57
2022-08-11T21:35:09.052Z,4.40
2022-08-11T21:37:56.146Z,4.13
2022-08-11T21:40:45.799Z,4.07
2022-08-11T21:43:32.762Z,4.17
2022-08-11T21:46:22.511Z,4.30
2022-08-11T21:49:10.306Z,3.90
2022-08-11T21:52:00.148Z,3.70
2022-08-11T21:54:46.284Z,4.20
2022-08-11T21:57:33.933Z,4.40
2022-08-11T22:00:20.326Z,3.77
2022-08-11T22:03:06.420Z,3.80
2022-08-11T22:05:53.562Z,3.87
2022-08-11T22:08:39.307Z,3.73
2022-08-11T22:11:32.203Z,4.00
2022-08-11T22:14:20.103Z,4.00
2022-08-11T22:17:15.155Z,4.30
2022-08-11T22:20:01.684Z,3.73
2022-08-11T22:22:53.228Z,4.23
2022-08-11T22:25:51.327Z,3.90
2022-08-11T22:28:40.159Z,4.33
2022-08-11T22:31:30.046Z,3.80
2022-08-11T22:34:16.268Z,4.20
2022-08-11T22:37:03.055Z,4.10
2022-08-11T22:40:02.681Z,4.07
2022-08-11T22:42:50.714Z,3.80
2022-08-11T22:45:38.297Z,3.97
2022-08-11T22:48:26.796Z,4.60
2022-08-11T22:51:15.053Z,3.90
2022-08-11T22:54:01.745Z,4.00
2022-08-11T22:56:49.304Z,4.17
2022-08-11T22:59:37.166Z,4.70
2022-08-11T23:02:25.346Z,4.50
2022-08-11T23:05:11.654Z,4.00
2022-08-11T23:07:59.393Z,4.60
2022-08-11T23:10:45.404Z,4.80
2022-08-11T23:13:35.561Z,4.33
2022-08-11T23:16:21.672Z,4.50
2022-08-11T23:19:08.229Z,4.40
2022-08-11T23:21:54.919Z,4.07
2022-08-11T23:24:43.310Z,4.47
2022-08-11T23:27:29.534Z,4.37
2022-08-11T23:30:18.834Z,4.63
2022-08-11T23:33:06.298Z,5.10
2022-08-11T23:35:58.017Z,5.20
2022-08-11T23:38:46.804Z,5.60
2022-08-11T23:41:36.049Z,5.87
2022-08-11T23:44:23.668Z,5.13
2022-08-11T23:47:14.638Z,5.27
2022-08-11T23:50:01.242Z,4.83
2022-08-11T23:52:49.402Z,5.73
2022-08-11T23:55:38.808Z,5.17
2022-08-11T23:58:28.014Z,5.10
